Time;durP1;ratioP1;P1;durP2;ratioP2;P2;SDS_P1;SDS_P2;PMS_P1;PMS_P2;Temp;Humidity;BMP_temperature;BMP_pressure;BME280_temperature;BME280_humidity;BME280_pressure;Samples;Min_cycle;Max_cycle;Signal;HPM_P1;HPM_P2
2023/05/09 00:00:14;;;;;;;0.40;0.40;;;;;;;12.55;100.00;97182.53;29395;237;63004;-57
2023/05/09 00:00:45;;;;;;;0.40;0.40;;;;;;;12.55;100.00;97182.53;29395;207;63022;-58
2023/05/09 00:01:16;;;;;;;0.40;0.40;;;;;;;12.55;100.00;97181.72;29395;207;63004;-57
2023/05/09 00:01:48;;;;;;;0.40;0.40;;;;;;;12.54;100.00;97183.63;29395;218;63009;-57
2023/05/09 00:02:23;;;;;;;0.40;0.40;;;;;;;12.53;100.00;97182.00;29394;323;64009;-57
2023/05/09 00:02:55;;;;;;;0.40;0.40;;;;;;;12.55;100.00;97185.25;29395;227;63008;-57
2023/05/09 00:03:26;;;;;;;0.40;0.40;;;;;;;12.55;100.00;97187.97;29395;368;63005;-58
2023/05/09 00:04:02;;;;;;;0.40;0.40;;;;;;;12.55;100.00;97179.81;29395;271;63009;-58
2023/05/09 00:04:34;;;;;;;0.40;0.40;;;;;;;12.57;100.00;97176.78;29395;242;63005;-57
2023/05/09 00:05:06;;;;;;;0.40;0.40;;;;;;;12.58;100.00;97183.84;29395;204;63009;-58
2023/05/09 00:05:38;;;;;;;0.40;0.40;;;;;;;12.58;100.00;97179.22;29395;326;63005;-57
2023/05/09 00:06:10;;;;;;;0.40;0.40;;;;;;;12.59;100.00;97178.09;29395;272;63009;-57
2023/05/09 00:06:41;;;;;;;0.40;0.40;;;;;;;12.61;100.00;97175.09;29395;272;63005;-55
2023/05/09 00:07:12;;;;;;;0.40;0.40;;;;;;;12.62;100.00;97169.34;29395;212;63009;-58
2023/05/09 00:07:44;;;;;;;0.40;0.40;;;;;;;12.62;100.00;97174.78;29394;237;64009;-57
2023/05/09 00:08:15;;;;;;;0.40;0.40;;;;;;;12.64;100.00;97167.13;29395;205;63009;-60
2023/05/09 00:08:47;;;;;;;0.40;0.40;;;;;;;12.63;100.00;97160.06;29395;302;63004;-57
2023/05/09 00:09:18;;;;;;;0.40;0.40;;;;;;;12.64;100.00;97169.84;29395;228;63009;-58
2023/05/09 00:09:49;;;;;;;0.40;0.40;;;;;;;12.66;100.00;97167.66;29395;228;63009;-57
2023/05/09 00:10:21;;;;;;;0.40;0.40;;;;;;;12.66;100.00;97173.09;29395;196;63008;-57
2023/05/09 00:10:52;;;;;;;0.40;0.40;;;;;;;12.65;100.00;97166.03;29394;196;64004;-58
2023/05/09 00:11:24;;;;;;;0.40;0.40;;;;;;;12.67;100.00;97165.72;29395;202;63009;-57
2023/05/09 00:11:55;;;;;;;0.40;0.40;;;;;;;12.66;100.00;97167.66;29394;314;64009;-55
2023/05/09 00:12:27;;;;;;;0.40;0.40;;;;;;;12.66;100.00;97170.38;29395;308;63009;-58
2023/05/09 00:12:59;;;;;;;0.40;0.40;;;;;;;12.66;100.00;97167.66;29395;328;63010;-56
2023/05/09 00:13:30;;;;;;;0.40;0.40;;;;;;;12.64;100.00;97164.41;29394;339;64009;-57
2023/05/09 00:14:02;;;;;;;0.40;0.40;;;;;;;12.62;100.00;97163.09;29395;220;63005;-57
2023/05/09 00:14:33;;;;;;;0.40;0.40;;;;;;;12.61;100.00;97167.72;29395;232;63023;-57
2023/05/09 00:15:07;;;;;;;0.40;0.40;;;;;;;12.60;100.00;97160.66;29395;386;63004;-56
2023/05/09 00:15:38;;;;;;;0.40;0.40;;;;;;;12.62;100.00;97163.91;29395;210;63009;-56
2023/05/09 00:16:10;;;;;;;0.40;0.40;;;;;;;12.62;100.00;97169.34;29395;215;63004;-56
2023/05/09 00:16:41;;;;;;;0.40;0.40;;;;;;;12.62;100.00;97163.91;29395;219;63009;-56
2023/05/09 00:17:14;;;;;;;0.40;0.40;;;;;;;12.63;100.00;97162.78;29394;229;64008;-56
2023/05/09 00:17:46;;;;;;;0.37;0.37;;;;;;;12.65;100.00;97165.22;29395;249;63008;-57
2023/05/09 00:18:18;;;;;;;0.40;0.40;;;;;;;12.63;100.00;97170.97;29395;203;63004;-56
2023/05/09 00:18:49;;;;;;;0.40;0.40;;;;;;;12.62;100.00;97169.34;29395;212;63009;-56
2023/05/09 00:19:23;;;;;;;0.40;0.40;;;;;;;12.60;100.00;97166.13;29395;267;63005;-56
2023/05/09 00:19:55;;;;;;;0.40;0.40;;;;;;;12.60;100.00;97166.13;29395;299;63009;-57
2023/05/09 00:20:27;;;;;;;0.40;0.40;;;;;;;12.60;100.00;97160.66;29395;293;63009;-55
2023/05/09 00:20:59;;;;;;;0.40;0.40;;;;;;;12.60;100.00;97166.13;29395;209;63009;-56
2023/05/09 00:21:31;;;;;;;0.40;0.40;;;;;;;12.61;100.00;97161.47;29395;204;63005;-57
2023/05/09 00:22:02;;;;;;;0.40;0.40;;;;;;;12.61;100.00;97159.56;29395;282;63009;-56
2023/05/09 00:22:34;;;;;;;0.40;0.40;;;;;;;12.63;100.00;97160.06;29394;219;64009;-57
2023/05/09 00:23:06;;;;;;;0.50;0.50;;;;;;;12.63;100.00;97160.06;29395;220;63009;-56
2023/05/09 00:23:38;;;;;;;0.40;0.40;;;;;;;12.65;100.00;97162.50;29395;211;63004;-57
2023/05/09 00:24:09;;;;;;;0.40;0.40;;;;;;;12.65;100.00;97157.84;29395;207;63009;-56
2023/05/09 00:24:40;;;;;;;0.40;0.40;;;;;;;12.66;100.00;97154.03;29395;291;63004;-56
2023/05/09 00:25:11;;;;;;;0.40;0.40;;;;;;;12.66;100.00;97156.75;29395;212;63008;-57
2023/05/09 00:25:43;;;;;;;0.40;0.40;;;;;;;12.67;100.00;97154.84;29395;306;63005;-56
2023/05/09 00:26:15;;;;;;;0.40;0.40;;;;;;;12.67;100.00;97155.66;29395;367;63009;-56
2023/05/09 00:26:46;;;;;;;0.40;0.40;;;;;;;12.69;100.00;97161.59;29395;266;63016;-56
2023/05/09 00:27:18;;;;;;;0.40;0.40;;;;;;;12.71;100.00;97155.84;29394;231;64013;-56
2023/05/09 00:27:49;;;;;;;0.40;0.40;;;;;;;12.72;100.00;97149.31;29395;376;63005;-57
2023/05/09 00:28:21;;;;;;;0.40;0.40;;;;;;;12.72;100.00;97152.84;29395;197;63009;-54
2023/05/09 00:28:52;;;;;;;0.40;0.40;;;;;;;12.71;100.00;97153.13;29395;305;63005;-54
2023/05/09 00:29:23;;;;;;;0.40;0.40;;;;;;;12.70;100.00;97154.25;29395;312;63009;-56
2023/05/09 00:29:54;;;;;;;0.40;0.40;;;;;;;12.69;100.00;97148.00;29395;379;63008;-55
2023/05/09 00:30:26;;;;;;;0.40;0.40;;;;;;;12.70;100.00;97148.78;29395;296;63009;-56
2023/05/09 00:32:03;;;;;;;0.42;0.42;;;;;;;12.74;100.00;97142.44;88179;219;64004;-57
2023/05/09 00:32:35;;;;;;;0.50;0.50;;;;;;;12.79;100.00;97146.19;29394;234;64009;-57
2023/05/09 00:33:07;;;;;;;0.40;0.40;;;;;;;12.79;100.00;97140.75;29395;220;63005;-58
2023/05/09 00:33:38;;;;;;;0.40;0.40;;;;;;;12.80;100.00;97147.81;29395;197;63009;-56
2023/05/09 00:34:09;;;;;;;0.40;0.40;;;;;;;12.80;100.00;97143.16;29395;251;63005;-58
2023/05/09 00:34:41;;;;;;;0.40;0.40;;;;;;;12.82;100.00;97145.59;29395;269;63009;-58
2023/05/09 00:35:12;;;;;;;0.40;0.40;;;;;;;12.85;100.00;97140.34;29395;211;63005;-57
2023/05/09 00:35:43;;;;;;;0.40;0.40;;;;;;;12.86;100.00;97146.59;29395;371;63009;-57
2023/05/09 00:36:15;;;;;;;0.50;0.50;;;;;;;12.84;100.00;97144.16;29395;290;63004;-56
2023/05/09 00:36:46;;;;;;;0.50;0.50;;;;;;;12.82;100.00;97140.94;29395;236;63004;-58
2023/05/09 00:37:18;;;;;;;0.40;0.40;;;;;;;12.80;100.00;97142.37;29395;295;63004;-59
2023/05/09 00:37:49;;;;;;;0.47;0.47;;;;;;;12.80;100.00;97143.16;29394;221;64013;-59
2023/05/09 00:38:22;;;;;;;2.72;2.47;;;;;;;12.81;100.00;97144.78;29395;271;63004;-60
2023/05/09 00:38:53;;;;;;;0.50;0.50;;;;;;;12.82;100.00;97145.59;29395;203;63025;-56
2023/05/09 00:39:25;;;;;;;0.40;0.40;;;;;;;12.80;100.00;97135.00;29395;237;63005;-56
2023/05/09 00:39:56;;;;;;;0.50;0.50;;;;;;;12.80;100.00;97142.37;29395;316;63009;-59
2023/05/09 00:40:27;;;;;;;0.50;0.50;;;;;;;12.78;100.00;97139.12;29395;198;63005;-58
2023/05/09 00:40:58;;;;;;;0.40;0.40;;;;;;;12.77;100.00;97143.78;29395;210;63009;-56
2023/05/09 00:41:29;;;;;;;0.40;0.40;;;;;;;12.73;100.00;97137.31;29395;235;63005;-57
2023/05/09 00:42:02;;;;;;;0.40;0.40;;;;;;;12.73;100.00;97143.56;29395;235;63009;-56
2023/05/09 00:42:34;;;;;;;0.40;0.40;;;;;;;12.73;100.00;97140.84;29395;204;63005;-57
2023/05/09 00:43:05;;;;;;;0.40;0.40;;;;;;;12.72;100.00;97136.50;29394;244;64013;-56
2023/05/09 00:43:37;;;;;;;0.40;0.40;;;;;;;12.72;100.00;97136.50;29395;278;63004;-56
2023/05/09 00:44:08;;;;;;;0.40;0.40;;;;;;;12.74;100.00;97139.72;29395;317;63018;-57
2023/05/09 00:44:42;;;;;;;0.40;0.40;;;;;;;12.74;100.00;97145.19;29394;275;64009;-57
2023/05/09 00:45:13;;;;;;;0.40;0.40;;;;;;;12.72;100.00;97139.22;29395;196;63009;-57
2023/05/09 00:45:45;;;;;;;0.45;0.45;;;;;;;12.75;100.00;97141.34;29395;318;63004;-58
2023/05/09 00:47:27;;;;;;;0.44;0.44;;;;;;;12.69;100.00;97133.56;88174;196;64004;-57
2023/05/09 00:47:58;;;;;;;0.40;0.40;;;;;;;12.66;100.00;97132.25;29394;224;64009;-58
2023/05/09 00:48:29;;;;;;;0.40;0.40;;;;;;;12.68;100.00;97138.22;29395;355;63005;-54
2023/05/09 00:49:01;;;;;;;0.40;0.40;;;;;;;12.67;100.00;97139.31;29395;242;63023;-56
2023/05/09 00:49:33;;;;;;;0.40;0.40;;;;;;;12.66;100.00;97137.69;29394;241;64009;-57
2023/05/09 00:50:05;;;;;;;0.40;0.40;;;;;;;12.65;100.00;97133.34;29395;202;63009;-55
2023/05/09 00:50:37;;;;;;;0.40;0.40;;;;;;;12.66;100.00;97136.88;29395;338;63015;-58
2023/05/09 00:51:08;;;;;;;0.40;0.40;;;;;;;12.66;100.00;97132.25;29395;286;63009;-58
2023/05/09 00:51:40;;;;;;;0.40;0.40;;;;;;;12.65;100.00;97135.28;29395;196;63004;-57
2023/05/09 00:52:12;;;;;;;0.62;0.62;;;;;;;12.63;100.00;97138.28;29395;222;63009;-57
2023/05/09 00:52:43;;;;;;;3.15;3.05;;;;;;;12.63;100.00;97132.03;29395;300;63004;-57
2023/05/09 00:53:14;;;;;;;0.40;0.40;;;;;;;12.62;100.00;97131.22;29395;224;63009;-57
2023/05/09 00:53:49;;;;;;;0.40;0.40;;;;;;;12.60;100.00;97128.00;29395;237;63004;-57
2023/05/09 00:54:20;;;;;;;0.40;0.40;;;;;;;12.62;100.00;97130.44;29395;214;63009;-58
2023/05/09 00:54:52;;;;;;;0.50;0.50;;;;;;;12.62;100.00;97133.97;29394;324;64009;-59
2023/05/09 00:55:24;;;;;;;0.40;0.40;;;;;;;12.62;100.00;97131.22;29395;250;63009;-57
2023/05/09 00:55:57;;;;;;;0.50;0.50;;;;;;;12.63;100.00;97126.59;29395;262;63005;-57
2023/05/09 00:56:28;;;;;;;0.40;0.40;;;;;;;12.63;100.00;97124.69;29395;299;63009;-56
2023/05/09 00:57:00;;;;;;;3.70;3.50;;;;;;;12.63;100.00;97123.88;29395;332;63005;-57
2023/05/09 00:57:31;;;;;;;0.40;0.40;;;;;;;12.61;100.00;97124.19;29395;213;63009;-58
2023/05/09 00:58:03;;;;;;;0.40;0.40;;;;;;;12.60;100.00;97121.75;29395;206;63005;-57
2023/05/09 00:58:34;;;;;;;0.70;0.70;;;;;;;12.60;100.00;97128.00;29395;262;63009;-57
2023/05/09 00:59:06;;;;;;;0.40;0.40;;;;;;;12.58;100.00;97118.53;29395;258;63016;-57
2023/05/09 00:59:38;;;;;;;0.50;0.50;;;;;;;12.56;100.00;97121.53;29394;209;64013;-56
2023/05/09 01:00:11;;;;;;;0.50;0.50;;;;;;;12.55;100.00;97130.81;29395;268;63004;-58
2023/05/09 01:00:43;;;;;;;0.40;0.40;;;;;;;12.56;100.00;97121.53;29395;197;63009;-57
2023/05/09 01:01:15;;;;;;;0.50;0.50;;;;;;;12.56;100.00;97115.28;29395;222;63004;-60
2023/05/09 01:15:09;;;;;;;0.50;0.50;;;;;;;12.30;100.00;97112.22;29395;262;63005;-56
2023/05/09 01:16:05;;;;;;;0.50;0.50;;;;;;;12.31;100.00;97114.63;29394;252;64009;-57
2023/05/09 01:16:44;;;;;;;0.47;0.47;;;;;;;12.32;100.00;97118.16;29394;214;64004;-57
2023/05/09 01:18:34;;;;;;;0.63;0.62;;;;;;;12.35;100.00;97114.84;88178;202;64005;-57
2023/05/09 01:19:42;;;;;;;0.40;0.40;;;;;;;12.34;100.00;97108.59;29394;213;64009;-57
2023/05/09 01:20:54;;;;;;;0.40;0.40;;;;;;;12.28;100.00;97114.41;29395;363;63004;-58
2023/05/09 01:21:29;;;;;;;0.50;0.50;;;;;;;12.31;100.00;97114.63;29417;221;63009;-58
2023/05/09 01:22:07;;;;;;;0.40;0.40;;;;;;;12.29;100.00;97116.03;29395;219;63005;-55
2023/05/09 01:22:47;;;;;;;0.40;0.40;;;;;;;12.28;100.00;97111.69;29395;197;63009;-58
2023/05/09 01:24:00;;;;;;;0.40;0.40;;;;;;;12.30;100.00;97110.31;29394;203;64009;-56
2023/05/09 01:25:13;;;;;;;0.40;0.40;;;;;;;12.31;100.00;97111.09;29395;275;63009;-57
2023/05/09 01:26:39;;;;;;;0.40;0.40;;;;;;;12.29;100.00;97110.59;29416;213;64013;-56
2023/05/09 01:27:47;;;;;;;0.50;0.50;;;;;;;12.24;100.00;97118.84;29395;202;63004;-57
2023/05/09 01:28:52;;;;;;;0.50;0.50;;;;;;;12.25;100.00;97109.56;29394;222;64008;-57
2023/05/09 01:29:47;;;;;;;0.40;0.40;;;;;;;12.22;100.00;97115.59;29395;226;63009;-57
2023/05/09 01:30:19;;;;;;;0.40;0.40;;;;;;;12.20;100.00;97115.09;29395;236;63005;-57
2023/05/09 01:30:54;;;;;;;0.40;0.40;;;;;;;12.18;100.00;97107.22;29395;223;63009;-56
2023/05/09 01:31:27;;;;;;;0.40;0.40;;;;;;;12.19;100.00;97118.91;29395;213;63005;-56
2023/05/09 01:32:02;;;;;;;0.40;0.40;;;;;;;12.18;100.00;97114.59;29395;203;63009;-57
2023/05/09 01:44:12;;;;;;;0.49;0.49;;;;;;;12.16;100.00;97089.59;88122;209;64005;-57
2023/05/09 01:44:46;;;;;;;0.50;0.50;;;;;;;12.15;100.00;97096.13;29394;202;64009;-57
2023/05/09 01:45:19;;;;;;;0.50;0.50;;;;;;;12.17;100.00;97091.22;29395;265;63004;-58
2023/05/09 01:45:52;;;;;;;1.75;1.58;;;;;;;12.17;100.00;97091.22;29395;209;63009;-57
2023/05/09 01:46:26;;;;;;;0.43;0.43;;;;;;;12.16;100.00;97089.59;29395;204;63004;-57
2023/05/09 01:46:59;;;;;;;0.40;0.40;;;;;;;12.17;100.00;97091.22;29395;223;63009;-57
2023/05/09 01:47:32;;;;;;;0.40;0.40;;;;;;;12.16;100.00;97095.03;29395;202;63004;-55
2023/05/09 01:59:43;;;;;;;0.50;0.50;;;;;;;12.05;100.00;97094.41;88122;202;64005;-58
2023/05/09 02:00:16;;;;;;;0.40;0.40;;;;;;;12.04;100.00;97088.16;29394;233;63997;-56
2023/05/09 02:00:49;;;;;;;0.40;0.40;;;;;;;12.04;100.00;97096.31;29395;196;63004;-56
2023/05/09 02:01:25;;;;;;;0.40;0.40;;;;;;;12.04;100.00;97093.59;29395;202;63009;-56
2023/05/09 02:01:57;;;;;;;0.40;0.40;;;;;;;12.04;100.00;97087.34;29395;209;63004;-57
2023/05/09 02:02:28;;;;;;;0.40;0.40;;;;;;;12.04;100.00;97082.72;29395;203;63009;-57
2023/05/09 02:03:02;;;;;;;0.45;0.45;;;;;;;12.07;100.00;97079.41;29395;237;63004;-56
2023/05/09 02:15:10;;;;;;;0.50;0.50;;;;;;;11.94;100.00;97099.19;88122;225;64005;-56
2023/05/09 02:15:43;;;;;;;0.45;0.45;;;;;;;11.94;100.00;97099.19;29394;216;64009;-56
2023/05/09 02:16:15;;;;;;;0.40;0.40;;;;;;;11.94;100.00;97099.19;29395;212;63004;-57
2023/05/09 02:16:46;;;;;;;0.43;0.43;;;;;;;11.94;100.00;97093.75;29395;267;63009;-56
2023/05/09 02:17:18;;;;;;;0.40;0.40;;;;;;;11.94;100.00;97103.84;29395;198;63004;-56
2023/05/09 02:17:50;;;;;;;0.40;0.40;;;;;;;11.94;100.00;97099.19;29395;199;63008;-56
2023/05/09 02:18:22;;;;;;;0.40;0.40;;;;;;;11.95;100.00;97094.56;29395;225;63005;-56
2023/05/09 02:20:04;;;;;;;0.44;0.44;;;;;;;11.95;100.00;97100.81;88174;203;64004;-57
2023/05/09 02:20:35;;;;;;;0.43;0.43;;;;;;;11.95;100.00;97103.53;29394;197;64009;-58
2023/05/09 02:21:07;;;;;;;0.40;0.40;;;;;;;11.95;100.00;97106.25;29395;198;63005;-57
2023/05/09 02:21:38;;;;;;;1.05;1.05;;;;;;;11.98;100.00;97102.94;29395;204;63009;-57
2023/05/09 02:22:11;;;;;;;0.40;0.40;;;;;;;12.00;100.00;97105.37;29395;281;63005;-57
2023/05/09 02:22:43;;;;;;;0.40;0.40;;;;;;;12.00;100.00;97103.47;29395;212;63009;-56
2023/05/09 02:23:14;;;;;;;0.40;0.40;;;;;;;12.01;100.00;97102.34;29395;230;63005;-57
2023/05/09 02:23:46;;;;;;;0.40;0.40;;;;;;;12.05;100.00;97100.66;29395;219;63009;-58
2023/05/09 02:24:17;;;;;;;0.40;0.40;;;;;;;12.06;100.00;97101.47;29394;216;64009;-57
2023/05/09 02:24:49;;;;;;;0.40;0.40;;;;;;;12.07;100.00;97106.63;29395;333;63009;-57
2023/05/09 02:25:21;;;;;;;0.50;0.50;;;;;;;12.07;100.00;97108.53;29395;245;63004;-57
2023/05/09 02:25:54;;;;;;;0.50;0.50;;;;;;;12.06;100.00;97105.00;29395;267;63009;-57
2023/05/09 02:26:25;;;;;;;0.47;0.47;;;;;;;12.06;100.00;97105.00;29395;250;63004;-57
2023/05/09 02:26:57;;;;;;;0.50;0.50;;;;;;;12.10;100.00;97107.13;29395;240;63009;-59
2023/05/09 02:27:32;;;;;;;0.50;0.50;;;;;;;12.10;100.00;97107.94;29395;252;63005;-57
2023/05/09 02:28:03;;;;;;;0.45;0.45;;;;;;;12.10;100.00;97101.69;29395;326;63019;-56
2023/05/09 02:28:35;;;;;;;0.40;0.40;;;;;;;12.07;100.00;97103.09;29395;220;63005;-55
2023/05/09 02:29:08;;;;;;;0.40;0.40;;;;;;;12.05;100.00;97103.38;29395;230;63009;-58
2023/05/09 02:29:46;;;;;;;0.50;0.50;;;;;;;12.06;100.00;97101.47;29394;218;64009;-57
2023/05/09 02:30:23;;;;;;;0.40;0.40;;;;;;;12.06;100.00;97105.00;29395;264;63009;-57
2023/05/09 02:30:59;;;;;;;0.40;0.40;;;;;;;12.05;100.00;97105.28;29395;220;63004;-57
2023/05/09 02:31:32;;;;;;;0.40;0.40;;;;;;;12.02;100.00;97095.81;29395;230;63018;-57
2023/05/09 02:32:11;;;;;;;0.40;0.40;;;;;;;12.02;100.00;97101.25;29395;252;63004;-57
2023/05/09 02:32:45;;;;;;;0.40;0.40;;;;;;;12.04;100.00;97093.59;29395;308;63009;-57
2023/05/09 02:33:17;;;;;;;0.40;0.40;;;;;;;12.05;100.00;97089.78;29395;211;63000;-58
2023/05/09 02:33:51;;;;;;;0.52;0.52;;;;;;;12.06;100.00;97096.84;29395;202;63009;-58
2023/05/09 02:45:58;;;;;;;0.44;0.44;;;;;;;12.04;100.00;97077.28;88122;223;64005;-57
2023/05/09 02:46:29;;;;;;;0.40;0.40;;;;;;;12.05;100.00;97081.63;29394;256;64009;-57
2023/05/09 02:47:02;;;;;;;0.40;0.40;;;;;;;12.04;100.00;97077.28;29394;210;64009;-56
2023/05/09 02:47:33;;;;;;;0.40;0.40;;;;;;;12.04;100.00;97077.28;29395;220;63008;-56
2023/05/09 02:48:05;;;;;;;0.50;0.50;;;;;;;12.03;100.00;97075.69;29395;258;63004;-56
2023/05/09 02:48:38;;;;;;;0.40;0.40;;;;;;;12.02;100.00;97089.56;29395;244;63009;-57
2023/05/09 02:49:10;;;;;;;0.40;0.40;;;;;;;11.99;100.00;97080.09;29395;224;63005;-56
2023/05/09 02:49:41;;;;;;;0.70;0.70;;;;;;;11.98;100.00;97073.03;29395;199;63009;-56
2023/05/09 02:50:13;;;;;;;0.40;0.40;;;;;;;11.96;100.00;97075.25;29395;216;63005;-56
2023/05/09 02:50:44;;;;;;;0.40;0.40;;;;;;;11.96;100.00;97082.59;29394;238;64013;-56
2023/05/09 02:51:16;;;;;;;0.40;0.40;;;;;;;11.95;100.00;97078.25;29395;226;63005;-57
2023/05/09 02:51:47;;;;;;;0.40;0.40;;;;;;;11.88;100.00;97066.94;29395;241;63009;-56
2023/05/09 02:52:19;;;;;;;0.40;0.40;;;;;;;11.90;100.00;97076.44;29395;204;63005;-56
2023/05/09 02:52:50;;;;;;;0.50;0.50;;;;;;;11.89;100.00;97079.44;29395;240;63009;-58
2023/05/09 02:53:21;;;;;;;0.40;0.40;;;;;;;11.87;100.00;97073.47;29394;202;64004;-57
2023/05/09 02:53:53;;;;;;;0.40;0.40;;;;;;;11.86;100.00;97075.41;29395;202;63009;-56
2023/05/09 02:54:25;;;;;;;0.47;0.47;;;;;;;11.85;100.00;97079.22;29395;228;63004;-56
2023/05/09 02:54:57;;;;;;;0.40;0.40;;;;;;;11.84;100.00;97077.59;29394;256;64030;-56
2023/05/09 02:55:28;;;;;;;0.40;0.40;;;;;;;11.83;100.00;97073.28;29395;246;63004;-56
2023/05/09 02:55:59;;;;;;;0.40;0.40;;;;;;;11.82;100.00;97071.66;29395;208;63009;-56
2023/05/09 02:56:30;;;;;;;0.40;0.40;;;;;;;11.82;100.00;97079.81;29395;246;63005;-56
2023/05/09 02:57:02;;;;;;;0.40;0.40;;;;;;;11.82;100.00;97068.94;29395;265;63009;-57
2023/05/09 02:57:33;;;;;;;0.40;0.40;;;;;;;11.83;100.00;97075.97;29395;234;63005;-56
2023/05/09 02:58:05;;;;;;;0.40;0.40;;;;;;;11.82;100.00;97073.56;29395;223;63009;-56
2023/05/09 02:58:36;;;;;;;0.40;0.40;;;;;;;11.81;100.00;97072.75;29395;227;63005;-56
2023/05/09 02:59:07;;;;;;;0.40;0.40;;;;;;;11.82;100.00;97073.56;29395;288;63009;-57
2023/05/09 02:59:38;;;;;;;0.40;0.40;;;;;;;11.83;100.00;97067.81;29394;272;64009;-57
2023/05/09 03:00:11;;;;;;;0.40;0.40;;;;;;;11.84;100.00;97071.34;29395;199;63009;-57
2023/05/09 03:00:45;;;;;;;0.40;0.40;;;;;;;11.85;100.00;97073.78;29395;239;63004;-57
2023/05/09 03:01:17;;;;;;;0.40;0.40;;;;;;;11.86;100.00;97066.44;29395;262;63009;-57
2023/05/09 03:01:48;;;;;;;0.40;0.40;;;;;;;11.87;100.00;97060.69;29395;243;63004;-57
2023/05/09 03:02:20;;;;;;;0.40;0.40;;;;;;;11.87;100.00;97066.13;29395;210;63008;-57
2023/05/09 03:02:51;;;;;;;0.40;0.40;;;;;;;11.89;100.00;97063.94;29395;196;63004;-59
2023/05/09 03:03:24;;;;;;;0.40;0.40;;;;;;;11.91;100.00;97056.28;29395;226;63009;-57
2023/05/09 03:03:55;;;;;;;0.40;0.40;;;;;;;11.93;100.00;97053.28;29395;264;63005;-57
2023/05/09 03:04:26;;;;;;;0.40;0.40;;;;;;;11.93;100.00;97059.50;29394;205;64013;-58
2023/05/09 03:17:20;;;;;;;0.50;0.50;;;;;;;11.94;100.00;97049.44;29395;343;63005;-57
2023/05/09 03:17:51;;;;;;;0.40;0.40;;;;;;;11.94;100.00;97050.25;29394;249;64009;-57
2023/05/09 03:18:23;;;;;;;0.50;0.50;;;;;;;11.94;100.00;97050.25;29395;198;63004;-56
2023/05/09 03:18:54;;;;;;;0.40;0.40;;;;;;;11.91;100.00;97050.84;29395;214;63009;-57
2023/05/09 03:19:26;;;;;;;0.40;0.40;;;;;;;11.89;100.00;97044.91;29395;252;63004;-57
2023/05/09 03:19:57;;;;;;;0.40;0.40;;;;;;;11.90;100.00;97048.44;29395;224;63009;-56
2023/05/09 03:22:35;;;;;;;0.40;0.40;;;;;;;11.88;100.00;97043.28;29394;222;64009;-93
2023/05/09 03:23:10;;;;;;;0.40;0.40;;;;;;;11.88;100.00;97048.72;29394;222;64009;-92
2023/05/09 03:23:43;;;;;;;0.40;0.40;;;;;;;11.87;100.00;97049.81;29395;237;63009;-90
2023/05/09 03:24:16;;;;;;;0.40;0.40;;;;;;;11.85;100.00;97053.94;29395;229;63004;-92
2023/05/09 03:25:23;;;;;;;0.47;0.47;;;;;;;11.83;100.00;97062.41;29394;246;64013;-91
2023/05/09 03:25:55;;;;;;;0.40;0.40;;;;;;;11.82;100.00;97058.06;29395;204;63004;-92
2023/05/09 03:26:29;;;;;;;0.40;0.40;;;;;;;11.81;100.00;97061.88;29395;208;63008;-94
2023/05/09 03:27:00;;;;;;;0.40;0.40;;;;;;;11.80;100.00;97060.25;29395;230;63005;-92
2023/05/09 03:27:35;;;;;;;0.40;0.40;;;;;;;11.79;100.00;97058.66;29395;206;63009;-93
2023/05/09 03:28:35;;;;;;;0.40;0.40;;;;;;;11.81;100.00;97056.44;29395;220;63005;-91
2023/05/09 03:29:47;;;;;;;0.40;0.40;;;;;;;11.81;100.00;97053.72;29395;209;63009;-90
2023/05/09 03:30:51;;;;;;;0.50;0.50;;;;;;;11.76;100.00;97048.38;29394;215;64009;-93
2023/05/09 03:31:34;;;;;;;0.40;0.40;;;;;;;11.74;100.00;97053.28;29395;226;63009;-92
2023/05/09 03:33:08;;;;;;;0.40;0.40;;;;;;;11.76;100.00;97053.81;29395;203;63004;-91
2023/05/09 03:33:44;;;;;;;0.40;0.40;;;;;;;11.79;100.00;97052.41;29395;331;63008;-92
2023/05/09 03:34:19;;;;;;;0.50;0.50;;;;;;;11.77;100.00;97041.84;29394;213;64008;-92
2023/05/09 03:35:29;;;;;;;0.50;0.50;;;;;;;11.77;100.00;97043.78;29395;217;63009;-92
2023/05/09 03:36:22;;;;;;;0.43;0.43;;;;;;;11.78;100.00;97034.50;29395;281;63005;-92
2023/05/09 03:36:55;;;;;;;0.40;0.40;;;;;;;11.77;100.00;97050.00;29394;251;64013;-91
2023/05/09 03:37:28;;;;;;;0.40;0.40;;;;;;;11.74;100.00;97045.13;29395;212;63005;-90
2023/05/09 03:38:23;;;;;;;0.40;0.40;;;;;;;11.72;100.00;97036.47;29395;202;63018;-92
2023/05/09 03:39:15;;;;;;;0.50;0.50;;;;;;;11.70;100.00;97044.09;29395;198;63004;-91
2023/05/09 03:40:07;;;;;;;0.50;0.50;;;;;;;11.69;100.00;97043.31;29395;209;63009;-93
2023/05/09 03:40:56;;;;;;;0.50;0.50;;;;;;;11.68;100.00;97046.31;29395;211;63004;-93
2023/05/09 03:41:28;;;;;;;0.50;0.50;;;;;;;11.68;100.00;97035.44;29395;249;63008;-92
2023/05/09 03:42:14;;;;;;;0.40;0.40;;;;;;;11.66;100.00;97043.87;29394;231;64024;-91
2023/05/09 03:42:46;;;;;;;0.50;0.50;;;;;;;11.63;100.00;97038.22;29395;219;63009;-92
2023/05/09 03:43:41;;;;;;;0.50;0.50;;;;;;;11.60;100.00;97044.25;29394;198;64009;-92
2023/05/09 03:44:21;;;;;;;0.40;0.40;;;;;;;11.59;100.00;97048.06;29395;221;63009;-91
2023/05/09 03:45:09;;;;;;;0.40;0.40;;;;;;;11.56;100.00;97044.03;29417;259;63005;-90
2023/05/09 03:45:58;;;;;;;0.40;0.40;;;;;;;11.55;100.00;97047.06;29395;289;63009;-93
2023/05/09 03:47:33;;;;;;;0.50;0.50;;;;;;;11.53;100.00;97050.06;29395;256;63004;-91
2023/05/09 03:49:20;;;;;;;0.40;0.40;;;;;;;11.57;100.00;97045.66;29395;273;63013;-92
2023/05/09 03:51:06;;;;;;;;;;;;;;;;;;;;;
2023/05/09 03:52:54;;;;;;;;;;;;;;;;;;;;;
2023/05/09 03:54:27;;;;;;;0.40;0.40;;;;;;;11.57;100.00;97042.13;29371;279;64009;-92
2023/05/09 03:55:34;;;;;;;0.50;0.50;;;;;;;11.56;100.00;97045.94;29394;209;63029;-57
2023/05/09 03:56:06;;;;;;;0.40;0.40;;;;;;;11.56;100.00;97043.22;29395;267;63004;-57
2023/05/09 03:56:40;;;;;;;0.40;0.40;;;;;;;11.56;100.00;97040.50;29395;242;63008;-57
2023/05/09 03:57:11;;;;;;;0.40;0.40;;;;;;;11.55;100.00;97042.41;29395;202;63005;-56
2023/05/09 03:57:43;;;;;;;0.40;0.40;;;;;;;11.58;100.00;97041.84;29394;234;64009;-57
2023/05/09 03:58:14;;;;;;;0.50;0.50;;;;;;;11.62;100.00;97036.63;29395;213;63005;-57
2023/05/09 03:58:47;;;;;;;0.40;0.40;;;;;;;11.63;100.00;97044.47;29394;226;64013;-58
2023/05/09 03:59:18;;;;;;;0.43;0.43;;;;;;;11.63;100.00;97038.22;29395;246;63005;-58
2023/05/09 03:59:50;;;;;;;0.50;0.50;;;;;;;11.61;100.00;97038.53;29394;226;64009;-59
2023/05/09 04:00:28;;;;;;;0.50;0.50;;;;;;;11.60;100.00;97036.91;29395;318;63005;-59
2023/05/09 04:01:00;;;;;;;0.40;0.40;;;;;;;11.59;100.00;97042.63;29395;235;63021;-57
2023/05/09 04:01:31;;;;;;;0.40;0.40;;;;;;;11.57;100.00;97039.41;29395;229;63004;-57
2023/05/09 04:02:02;;;;;;;0.40;0.40;;;;;;;11.59;100.00;97042.63;29395;234;63009;-58
2023/05/09 04:02:37;;;;;;;0.40;0.40;;;;;;;11.59;100.00;97042.63;29394;255;64004;-58
2023/05/09 04:03:08;;;;;;;0.40;0.40;;;;;;;11.57;100.00;97034.78;29395;223;63009;-58
2023/05/09 04:03:40;;;;;;;0.40;0.40;;;;;;;11.53;100.00;97039.19;29394;211;64009;-59
2023/05/09 04:04:11;;;;;;;0.40;0.40;;;;;;;11.53;100.00;97038.38;29395;237;63016;-58
2023/05/09 04:04:43;;;;;;;0.40;0.40;;;;;;;11.53;100.00;97043.81;29395;213;63005;-59
2023/05/09 04:05:16;;;;;;;0.40;0.40;;;;;;;11.53;100.00;97041.09;29395;224;63009;-55
2023/05/09 04:05:47;;;;;;;0.50;0.50;;;;;;;11.51;100.00;97040.59;29395;204;63005;-56
2023/05/09 04:06:19;;;;;;;0.40;0.40;;;;;;;11.48;100.00;97041.16;29395;267;63009;-56
2023/05/09 04:06:50;;;;;;;0.40;0.40;;;;;;;11.46;100.00;97038.75;29395;222;63005;-57
2023/05/09 04:08:28;;;;;;;0.46;0.46;;;;;;;11.40;100.00;97037.22;88182;202;64004;-91
2023/05/09 04:09:13;;;;;;;0.50;0.50;;;;;;;11.38;100.00;97034.81;29394;231;64009;-91
2023/05/09 04:09:45;;;;;;;0.50;0.50;;;;;;;11.39;100.00;97035.63;29395;277;63004;-91
2023/05/09 04:10:20;;;;;;;0.40;0.40;;;;;;;11.38;100.00;97037.53;29395;249;63009;-93
2023/05/09 04:11:09;;;;;;;0.50;0.50;;;;;;;11.38;100.00;97042.16;29395;208;63009;-56
2023/05/09 04:11:40;;;;;;;0.40;0.40;;;;;;;11.36;100.00;97042.44;29395;208;63009;-57